Time;durP1;ratioP1;P1;durP2;ratioP2;P2;SDS_P1;SDS_P2;PMS_P1;PMS_P2;Temp;Humidity;BMP_temperature;BMP_pressure;BME280_temperature;BME280_humidity;BME280_pressure;Samples;Min_cycle;Max_cycle;Signal;HPM_P1;HPM_P2
2023/04/18 00:01:57;;;;;;;3.30;1.75;;;;;;;15.72;60.05;99480.84;4470700;32;20594;-88
2023/04/18 00:04:22;;;;;;;2.78;1.52;;;;;;;15.76;60.05;99484.97;4483861;32;20109;-88
2023/04/18 00:06:48;;;;;;;2.53;1.60;;;;;;;15.65;60.05;99481.22;4470782;32;20100;-89
2023/04/18 00:09:14;;;;;;;4.07;1.80;;;;;;;15.76;60.05;99483.22;4470975;32;20121;-88
2023/04/18 00:11:40;;;;;;;2.40;1.70;;;;;;;15.78;60.05;99488.38;4483689;32;20088;-89
2023/04/18 00:14:05;;;;;;;4.22;2.00;;;;;;;15.72;60.05;99486.09;4483545;32;20152;-90
2023/04/18 00:16:31;;;;;;;3.75;1.77;;;;;;;15.69;60.05;99488.91;4470588;32;20150;-89
2023/04/18 00:18:57;;;;;;;3.83;1.65;;;;;;;15.73;60.05;99493.03;4480479;31;20118;-88
2023/04/18 00:21:24;;;;;;;2.60;1.60;;;;;;;15.71;60.05;99487.88;4475440;31;20108;-89
2023/04/18 00:23:50;;;;;;;6.25;1.70;;;;;;;15.79;60.06;99484.81;4491236;31;20573;-90
2023/04/18 00:26:15;;;;;;;3.67;2.08;;;;;;;15.70;60.06;99491.44;4470918;32;20092;-89
2023/04/18 00:28:41;;;;;;;2.75;1.87;;;;;;;15.70;60.06;99499.31;4480473;31;20114;-88
2023/04/18 00:31:06;;;;;;;4.03;2.22;;;;;;;15.68;60.05;99495.94;4486462;31;20115;-88
2023/04/18 00:33:33;;;;;;;4.95;1.98;;;;;;;15.62;60.04;99493.66;4486551;31;20167;-87
2023/04/18 00:35:58;;;;;;;4.43;1.62;;;;;;;15.89;60.06;99491.22;4486574;31;20108;-88
2023/04/18 00:38:24;;;;;;;2.35;1.85;;;;;;;15.68;60.05;99487.22;4489190;31;20150;-88
2023/04/18 00:40:49;;;;;;;5.30;2.03;;;;;;;15.76;60.05;99485.84;4470613;32;20881;-88
2023/04/18 00:43:15;;;;;;;3.50;1.67;;;;;;;15.71;60.05;99481.78;4485244;31;20137;-88
2023/04/18 00:45:41;;;;;;;4.37;2.03;;;;;;;15.82;60.06;99492.50;4483785;32;20146;-88
2023/04/18 00:48:06;;;;;;;3.08;2.08;;;;;;;15.89;60.06;99481.56;4483775;32;20116;-89
2023/04/18 00:50:32;;;;;;;3.47;2.30;;;;;;;15.91;60.06;99482.34;4483509;32;20652;-89
2023/04/18 00:52:57;;;;;;;3.37;2.25;;;;;;;15.86;60.06;99484.38;4464207;32;20410;-89
2023/04/18 00:55:23;;;;;;;3.15;2.33;;;;;;;15.86;60.06;99494.03;4467347;32;29302;-88
2023/04/18 00:57:48;;;;;;;2.70;2.20;;;;;;;15.76;60.05;99488.44;4470934;32;20100;-89
2023/04/18 01:00:14;;;;;;;2.60;2.03;;;;;;;15.60;60.04;99491.09;4482473;32;20147;-88
2023/04/18 01:02:39;;;;;;;3.67;2.40;;;;;;;15.44;60.04;99494.66;4483722;32;20497;-89
2023/04/18 01:05:06;;;;;;;3.35;2.40;;;;;;;15.40;60.04;99485.28;4471550;31;20559;-89
2023/04/18 01:07:32;;;;;;;3.28;1.90;;;;;;;15.44;60.04;99484.16;4486006;31;20167;-88
2023/04/18 01:09:57;;;;;;;3.53;2.47;;;;;;;15.41;60.03;99487.81;4486051;31;20416;-90
2023/04/18 01:12:23;;;;;;;3.30;2.05;;;;;;;15.50;60.04;99486.44;4483679;32;20180;-90
2023/04/18 01:14:48;;;;;;;2.95;2.00;;;;;;;15.40;60.04;99480.03;4471451;32;20105;-88
2023/04/18 01:17:15;;;;;;;2.85;2.08;;;;;;;15.30;60.03;99475.28;4483020;32;24580;-91
2023/04/18 01:19:40;;;;;;;4.57;2.78;;;;;;;15.31;60.02;99486.62;4472026;31;20119;-90
2023/04/18 01:22:06;;;;;;;4.25;2.50;;;;;;;15.31;60.04;99486.62;4476658;32;20124;-90
2023/04/18 01:24:31;;;;;;;3.40;2.10;;;;;;;15.21;60.02;99486.28;4470401;32;20112;-90
2023/04/18 01:26:58;;;;;;;4.03;2.50;;;;;;;15.34;60.03;99491.69;4457559;32;20107;-88
2023/04/18 01:29:24;;;;;;;3.25;2.25;;;;;;;15.33;60.03;99490.00;4482714;31;30333;-89
2023/04/18 01:31:50;;;;;;;4.37;2.40;;;;;;;15.34;60.04;99491.69;4470584;32;20108;-92
2023/04/18 01:34:16;;;;;;;5.53;2.37;;;;;;;15.44;60.04;99494.66;4470207;32;20130;-90
2023/04/18 01:36:42;;;;;;;2.53;1.98;;;;;;;15.38;60.03;99493.22;4470541;32;20159;-91
2023/04/18 01:39:08;;;;;;;4.85;2.37;;;;;;;15.27;60.03;99493.81;4460308;31;29112;-89
2023/04/18 01:41:33;;;;;;;3.28;2.40;;;;;;;15.33;60.03;99492.63;4485949;31;20100;-90
2023/04/18 01:43:59;;;;;;;5.25;2.80;;;;;;;15.19;60.02;99493.41;4486011;31;20096;-90
2023/04/18 01:46:24;;;;;;;3.40;2.45;;;;;;;14.99;60.02;99494.47;4483351;32;20118;-91
2023/04/18 01:48:50;;;;;;;4.85;2.42;;;;;;;15.00;60.01;99485.69;4467364;32;20145;-90
2023/04/18 01:51:15;;;;;;;5.60;2.60;;;;;;;15.09;60.01;99499.22;4482845;32;20144;-91
2023/04/18 01:53:40;;;;;;;3.33;2.42;;;;;;;15.07;60.01;99504.53;4457654;32;20431;-89
2023/04/18 01:56:06;;;;;;;4.65;2.40;;;;;;;15.04;60.02;99500.31;4478095;31;26218;-89
2023/04/18 01:58:31;;;;;;;3.95;2.35;;;;;;;15.03;60.02;99496.00;4485310;31;20088;-89
2023/04/18 02:00:57;;;;;;;6.97;3.50;;;;;;;14.92;60.01;99498.37;4468991;32;30218;-90
2023/04/18 02:03:23;;;;;;;4.95;2.28;;;;;;;14.97;60.01;99500.72;4470038;32;20096;-89
2023/04/18 02:05:48;;;;;;;4.62;2.50;;;;;;;15.07;60.01;99495.81;4478779;31;20107;-90
2023/04/18 02:08:14;;;;;;;4.30;3.17;;;;;;;15.01;60.02;99499.63;4496431;31;20096;-90
2023/04/18 02:10:39;;;;;;;4.90;2.80;;;;;;;15.07;60.01;99498.44;4478549;31;20104;-90
2023/04/18 02:13:05;;;;;;;4.30;2.55;;;;;;;14.96;60.01;99507.75;4472536;31;20171;-90
2023/04/18 02:15:31;;;;;;;3.87;2.80;;;;;;;14.74;60.00;99504.59;4485791;31;20131;-90
2023/04/18 02:17:58;;;;;;;5.28;2.87;;;;;;;14.72;60.00;99506.44;4485613;31;20116;-92
2023/04/18 02:20:25;;;;;;;4.15;2.50;;;;;;;14.77;60.00;99517.50;4473061;31;20060;-90
2023/04/18 02:22:50;;;;;;;4.95;2.72;;;;;;;14.80;60.01;99511.25;4472549;31;20096;-90
2023/04/18 02:25:15;;;;;;;4.60;2.78;;;;;;;14.81;60.00;99503.31;4483557;32;20106;-89
2023/04/18 02:27:41;;;;;;;6.07;3.05;;;;;;;14.79;60.01;99504.34;4482886;31;20140;-90
2023/04/18 02:30:07;;;;;;;4.43;2.45;;;;;;;14.74;60.00;99505.41;4469450;32;20164;-90
2023/04/18 02:32:32;;;;;;;4.30;3.42;;;;;;;14.86;60.00;99505.69;4469521;32;20097;-89
2023/04/18 02:34:58;;;;;;;4.82;2.97;;;;;;;14.83;60.00;99503.22;4463499;32;20192;-89
2023/04/18 02:37:23;;;;;;;4.60;2.97;;;;;;;14.88;60.00;99501.22;4482751;31;20089;-92
2023/04/18 02:39:49;;;;;;;4.90;2.80;;;;;;;14.91;60.01;99506.31;4465584;31;20120;-89
2023/04/18 02:42:15;;;;;;;7.07;2.97;;;;;;;14.98;60.01;99502.44;4468960;32;20108;-88
2023/04/18 02:44:40;;;;;;;3.87;2.45;;;;;;;14.86;60.00;99501.28;4482238;32;20127;-90
2023/04/18 02:47:05;;;;;;;5.93;3.10;;;;;;;14.77;59.99;99511.44;4470137;31;20105;-89
2023/04/18 02:49:31;;;;;;;5.20;2.72;;;;;;;14.77;59.99;99512.28;4489612;31;26793;-89
2023/04/18 02:51:56;;;;;;;4.32;2.78;;;;;;;14.78;60.00;99508.72;4456230;32;20097;-88
2023/04/18 02:54:23;;;;;;;4.22;2.70;;;;;;;14.86;60.00;99514.41;4469136;32;20096;-90
2023/04/18 02:56:50;;;;;;;4.90;3.40;;;;;;;14.89;60.01;99510.75;4482158;31;20173;-89
2023/04/18 02:59:15;;;;;;;4.97;2.95;;;;;;;14.87;60.01;99516.09;4474405;32;20156;-89
2023/04/18 03:01:40;;;;;;;5.47;2.87;;;;;;;14.89;60.01;99526.47;4470174;31;29694;-93
2023/04/18 03:04:06;;;;;;;5.20;3.05;;;;;;;14.83;60.00;99518.97;4471765;32;20092;-91
2023/04/18 03:06:32;;;;;;;5.43;2.72;;;;;;;14.82;60.00;99525.97;4469254;32;20089;-92
2023/04/18 03:08:57;;;;;;;5.03;3.22;;;;;;;14.86;60.00;99530.13;4463483;32;20145;-92
2023/04/18 03:11:23;;;;;;;4.80;3.08;;;;;;;14.97;60.01;99524.31;4474116;32;20148;-90
2023/04/18 03:13:48;;;;;;;6.18;3.70;;;;;;;14.97;60.02;99538.28;4472248;32;20458;-91
2023/04/18 03:16:13;;;;;;;6.18;3.50;;;;;;;14.93;60.00;99528.87;4487359;31;20100;-91
2023/04/18 03:18:39;;;;;;;7.82;3.60;;;;;;;15.11;60.02;99527.03;4486982;31;20108;-90
2023/04/18 03:21:06;;;;;;;4.85;3.37;;;;;;;15.18;60.03;99530.19;4486305;31;28024;-91
2023/04/18 03:23:31;;;;;;;7.22;3.42;;;;;;;15.21;60.02;99522.16;4485185;32;20114;-91
2023/04/18 03:25:56;;;;;;;6.47;3.20;;;;;;;15.17;60.02;99534.59;4472032;31;20144;-90
2023/04/18 03:28:22;;;;;;;5.35;3.17;;;;;;;15.18;60.02;99530.19;4487436;32;21691;-89
2023/04/18 03:30:47;;;;;;;4.82;3.33;;;;;;;15.31;60.04;99526.78;4468727;31;20124;-90
2023/04/18 03:33:15;;;;;;;5.00;3.50;;;;;;;15.31;60.02;99531.19;4471437;32;20152;-90
2023/04/18 03:35:41;;;;;;;5.65;3.70;;;;;;;15.53;60.04;99533.47;4484689;31;20130;-90
2023/04/18 03:38:06;;;;;;;5.12;3.33;;;;;;;15.38;60.03;99534.31;4471591;32;20108;-90
2023/04/18 03:40:32;;;;;;;5.43;3.53;;;;;;;15.48;60.04;99540.75;4484316;31;20112;-88
2023/04/18 03:42:58;;;;;;;6.50;3.53;;;;;;;15.26;60.02;99531.44;4484462;32;20148;-90
2023/04/18 03:45:24;;;;;;;5.40;3.62;;;;;;;15.31;60.04;99529.41;4483162;31;20092;-90
2023/04/18 03:47:49;;;;;;;5.53;3.90;;;;;;;15.21;60.02;99527.41;4461363;32;20118;-90
2023/04/18 03:50:15;;;;;;;5.40;3.72;;;;;;;15.19;60.02;99529.25;4482833;32;20265;-90
2023/04/18 03:52:40;;;;;;;7.85;4.28;;;;;;;15.28;60.03;99532.22;4481806;32;20118;-90
2023/04/18 03:55:06;;;;;;;6.00;3.67;;;;;;;15.31;60.03;99529.41;4455695;31;20172;-91
2023/04/18 03:57:31;;;;;;;5.45;3.30;;;;;;;15.35;60.03;99530.09;4476427;32;20347;-91
2023/04/18 03:59:58;;;;;;;5.37;3.65;;;;;;;15.45;60.04;99533.06;4474088;31;20143;-90
2023/04/18 04:02:23;;;;;;;7.03;3.72;;;;;;;15.47;60.03;99528.59;4486739;31;20515;-91
2023/04/18 04:04:49;;;;;;;7.40;3.78;;;;;;;15.43;60.03;99541.03;4471196;32;20100;-90
2023/04/18 04:07:14;;;;;;;6.12;3.83;;;;;;;15.20;60.02;99530.94;4471583;32;20495;-88
2023/04/18 04:09:39;;;;;;;6.30;3.83;;;;;;;15.20;60.02;99542.28;4473424;32;20468;-88
2023/04/18 04:12:05;;;;;;;6.60;3.35;;;;;;;15.19;60.02;99540.59;4493824;31;20108;-90
2023/04/18 04:14:31;;;;;;;5.18;3.80;;;;;;;15.06;60.01;99544.78;4465333;32;20145;-91
2023/04/18 04:16:56;;;;;;;5.65;3.58;;;;;;;15.03;60.02;99553.66;4470433;32;20190;-91
2023/04/18 04:19:22;;;;;;;6.72;4.20;;;;;;;14.97;60.01;99556.63;4490293;31;20404;-90
2023/04/18 04:21:47;;;;;;;5.75;3.40;;;;;;;14.91;60.00;99551.72;4484743;31;23669;-89
2023/04/18 04:24:12;;;;;;;7.37;3.25;;;;;;;14.93;60.00;99551.63;4485537;31;20112;-90
2023/04/18 04:26:38;;;;;;;5.03;2.90;;;;;;;14.78;59.99;99555.03;4471303;32;20152;-91
2023/04/18 04:29:03;;;;;;;8.73;3.78;;;;;;;14.90;60.00;99555.22;4485622;31;20124;-90
2023/04/18 04:31:30;;;;;;;5.82;3.58;;;;;;;14.76;59.99;99556.91;4487396;31;20376;-91
2023/04/18 04:33:56;;;;;;;5.22;3.37;;;;;;;14.86;60.00;99552.84;4470034;32;20495;-90
2023/04/18 04:36:23;;;;;;;5.70;3.62;;;;;;;14.90;60.01;99557.00;4465692;32;20116;-90
2023/04/18 04:38:48;;;;;;;5.25;2.75;;;;;;;14.87;60.01;99565.03;4469416;32;20184;-90
2023/04/18 04:41:14;;;;;;;5.95;3.55;;;;;;;14.84;60.00;99558.19;4469163;31;20135;-91
2023/04/18 04:43:41;;;;;;;7.72;3.95;;;;;;;14.79;60.01;99561.97;4487336;32;20092;-90
2023/04/18 04:46:07;;;;;;;7.70;3.30;;;;;;;14.80;60.01;99569.75;4471058;32;20131;-90
2023/04/18 04:48:32;;;;;;;6.07;3.47;;;;;;;14.87;60.01;99568.50;4495902;31;20096;-90
2023/04/18 04:50:58;;;;;;;5.93;3.50;;;;;;;14.81;60.00;99573.22;4483135;32;32655;-89
2023/04/18 04:53:25;;;;;;;5.93;3.40;;;;;;;14.73;60.00;99566.63;4485214;31;20092;-91
2023/04/18 04:55:50;;;;;;;5.57;3.58;;;;;;;14.72;60.00;99572.78;4484244;32;20173;-90
2023/04/18 04:58:16;;;;;;;5.95;3.40;;;;;;;14.82;60.00;99575.75;4471304;31;31039;-88
2023/04/18 05:00:41;;;;;;;4.05;2.72;;;;;;;14.83;60.00;99574.84;4485933;31;20135;-88
2023/04/18 05:03:07;;;;;;;5.00;3.05;;;;;;;14.79;60.00;99580.31;4483293;32;20170;-88
2023/04/18 05:05:32;;;;;;;5.25;3.33;;;;;;;14.92;60.01;99579.63;4472274;32;20168;-89
2023/04/18 05:07:57;;;;;;;6.28;2.67;;;;;;;14.86;60.00;99592.16;4471116;32;20093;-88
2023/04/18 05:10:23;;;;;;;5.05;2.47;;;;;;;14.88;60.00;99578.06;4484778;31;20483;-87
2023/04/18 05:12:48;;;;;;;7.22;2.30;;;;;;;14.75;59.99;99579.63;4484345;32;20136;-89
2023/04/18 05:15:14;;;;;;;3.90;2.15;;;;;;;14.69;59.99;99578.19;4471124;32;20104;-89
2023/04/18 05:17:40;;;;;;;4.20;2.30;;;;;;;14.65;60.00;99591.50;4484756;31;20481;-89
2023/04/18 05:20:06;;;;;;;4.55;2.87;;;;;;;14.56;59.99;99586.75;4491002;31;20147;-88
2023/04/18 05:22:31;;;;;;;5.47;2.92;;;;;;;14.65;60.00;99588.87;4481953;32;20080;-87
2023/04/18 05:24:57;;;;;;;5.37;3.20;;;;;;;14.74;59.99;99586.66;4471228;32;20108;-87
2023/04/18 05:27:22;;;;;;;5.72;3.67;;;;;;;14.83;60.00;99595.78;4496951;31;20980;-88
2023/04/18 05:29:49;;;;;;;7.55;3.70;;;;;;;14.65;59.99;99597.56;4483843;32;20166;-88
2023/04/18 05:32:14;;;;;;;5.03;3.20;;;;;;;14.65;59.99;99584.47;4484009;31;20076;-88
2023/04/18 05:34:41;;;;;;;5.37;3.50;;;;;;;14.61;59.99;99588.19;4483275;32;20417;-88
2023/04/18 05:37:06;;;;;;;5.75;3.30;;;;;;;14.65;59.99;99608.06;4484940;31;20100;-88
2023/04/18 05:39:31;;;;;;;4.97;3.35;;;;;;;14.53;59.99;99602.59;4476034;32;20128;-89
2023/04/18 05:41:57;;;;;;;6.10;3.70;;;;;;;14.73;60.00;99602.44;4484490;31;20116;-88
2023/04/18 05:44:23;;;;;;;6.80;4.03;;;;;;;14.72;60.00;99606.84;4486064;32;20112;-88
2023/04/18 05:46:50;;;;;;;8.98;4.10;;;;;;;14.81;60.00;99607.28;4470544;32;20133;-88
2023/04/18 05:49:17;;;;;;;7.28;4.12;;;;;;;14.88;60.01;99609.50;4471005;32;20135;-88
2023/04/18 05:51:42;;;;;;;12.55;7.15;;;;;;;14.96;60.01;99601.25;4473483;31;20573;-88
2023/04/18 05:54:08;;;;;;;8.15;4.70;;;;;;;15.02;60.01;99607.03;4477755;32;20126;-88
2023/04/18 05:56:33;;;;;;;9.02;5.47;;;;;;;15.13;60.02;99608.22;4484284;31;20176;-89
2023/04/18 05:58:58;;;;;;;6.82;4.72;;;;;;;15.33;60.03;99618.50;4483034;32;20092;-88
2023/04/18 06:01:24;;;;;;;8.85;4.30;;;;;;;15.40;60.04;99598.91;4483020;32;20144;-87
2023/04/18 06:03:49;;;;;;;5.78;3.62;;;;;;;15.42;60.04;99597.03;4482810;32;27474;-87
2023/04/18 06:06:15;;;;;;;7.32;4.53;;;;;;;15.63;60.05;99603.78;4484117;31;20234;-86
2023/04/18 06:08:40;;;;;;;9.05;4.72;;;;;;;15.54;60.03;99603.38;4482866;32;20468;-87
2023/04/18 06:11:06;;;;;;;6.80;4.18;;;;;;;15.51;60.04;99614.03;4484364;31;20127;-87
2023/04/18 06:13:31;;;;;;;9.18;4.15;;;;;;;15.63;60.05;99608.16;4483610;32;20121;-87
2023/04/18 06:15:57;;;;;;;5.87;3.67;;;;;;;15.55;60.04;99605.91;4482932;32;34127;-87
2023/04/18 06:18:22;;;;;;;6.72;3.78;;;;;;;15.67;60.04;99620.19;4485658;31;20117;-87
2023/04/18 06:20:48;;;;;;;5.80;3.80;;;;;;;15.70;60.06;99620.00;4472875;31;20879;-87
2023/04/18 06:23:13;;;;;;;5.87;3.75;;;;;;;15.69;60.04;99610.44;4490882;31;20096;-87
2023/04/18 06:25:40;;;;;;;7.00;3.67;;;;;;;15.88;60.06;99613.75;4483910;31;31120;-87
2023/04/18 06:28:05;;;;;;;5.85;3.78;;;;;;;16.02;60.07;99615.59;4470291;32;20102;-87
2023/04/18 06:30:31;;;;;;;8.27;3.72;;;;;;;15.96;60.06;99621.19;4459084;31;34397;-87
2023/04/18 06:32:56;;;;;;;4.65;3.20;;;;;;;15.97;60.06;99622.88;4492291;31;20093;-87
2023/04/18 06:35:22;;;;;;;7.65;3.55;;;;;;;15.77;60.05;99617.88;4482860;32;20257;-87
2023/04/18 06:37:47;;;;;;;6.68;3.65;;;;;;;15.78;60.04;99619.59;4485220;32;20100;-87
2023/04/18 06:40:13;;;;;;;5.00;3.12;;;;;;;15.96;60.06;99624.66;4485098;32;20092;-87
2023/04/18 06:42:38;;;;;;;5.75;2.92;;;;;;;16.10;60.07;99616.03;4492070;31;27730;-88
2023/04/18 06:45:05;;;;;;;2.40;1.50;;;;;;;16.40;60.09;99620.44;4484408;32;33218;-87
2023/04/18 06:47:30;;;;;;;4.07;1.62;;;;;;;16.46;60.10;99613.03;4485331;32;20125;-87
2023/04/18 06:49:56;;;;;;;2.15;1.35;;;;;;;16.43;60.09;99609.75;4474803;31;20520;-88
2023/04/18 06:52:21;;;;;;;2.92;1.52;;;;;;;16.42;60.09;99623.81;4492726;31;20392;-87
2023/04/18 06:54:46;;;;;;;2.22;1.23;;;;;;;16.44;60.08;99616.69;4484328;31;33045;-88
2023/04/18 06:57:12;;;;;;;3.53;1.20;;;;;;;16.65;60.10;99622.47;4486662;31;20100;-87
2023/04/18 06:59:39;;;;;;;1.85;1.05;;;;;;;16.62;60.10;99617.41;4487834;31;20108;-87
2023/04/18 07:02:05;;;;;;;2.80;1.60;;;;;;;16.62;60.10;99623.50;4484834;32;20178;-87
2023/04/18 07:04:30;;;;;;;2.05;1.48;;;;;;;16.65;60.10;99619.84;4484595;31;20504;-88
2023/04/18 07:06:55;;;;;;;4.03;1.62;;;;;;;16.88;60.11;99628.09;4485000;32;20083;-87
2023/04/18 07:09:21;;;;;;;2.95;1.17;;;;;;;16.87;60.11;99625.56;4482073;31;20161;-88
2023/04/18 07:11:47;;;;;;;6.80;1.95;;;;;;;16.91;60.11;99623.59;4484990;32;20154;-87
2023/04/18 07:14:12;;;;;;;2.30;1.50;;;;;;;16.97;60.12;99628.47;4485081;31;20128;-87
2023/04/18 07:16:38;;;;;;;1.80;1.37;;;;;;;17.18;60.13;99621.91;4476762;32;20489;-87
2023/04/18 07:19:04;;;;;;;4.00;1.45;;;;;;;17.35;60.13;99618.25;4485410;31;20164;-87
2023/04/18 07:21:30;;;;;;;3.20;1.50;;;;;;;17.63;60.16;99622.63;4471913;32;20100;-87
2023/04/18 07:23:55;;;;;;;3.08;1.50;;;;;;;17.91;60.16;99616.50;4486076;31;20437;-88
2023/04/18 07:26:21;;;;;;;2.78;1.12;;;;;;;17.88;60.16;99620.16;4484891;32;20084;-87
2023/04/18 07:28:46;;;;;;;3.80;1.35;;;;;;;17.68;60.15;99624.06;4484519;31;20144;-87
2023/04/18 07:31:13;;;;;;;3.08;1.67;;;;;;;17.69;60.14;99625.75;4471261;32;25417;-87
2023/04/18 07:33:38;;;;;;;2.70;1.30;;;;;;;17.75;60.16;99627.19;4484986;31;20164;-87
2023/04/18 07:36:04;;;;;;;3.17;1.02;;;;;;;18.01;60.17;99630.78;4486265;31;20115;-87
2023/04/18 07:38:29;;;;;;;2.67;2.10;;;;;;;18.12;60.18;99637.97;4458820;31;20117;-87
2023/04/18 07:40:58;;;;;;;3.83;1.33;;;;;;;18.19;60.18;99639.25;4485830;32;20468;-87
2023/04/18 07:43:24;;;;;;;5.05;1.45;;;;;;;18.32;60.19;99635.72;4484231;31;20412;-87
2023/04/18 07:45:50;;;;;;;4.03;1.35;;;;;;;18.33;60.19;99633.94;4493129;31;20120;-87
2023/04/18 07:48:16;;;;;;;2.60;1.23;;;;;;;18.34;60.19;99633.00;4471596;31;20119;-87
2023/04/18 07:50:41;;;;;;;1.50;1.23;;;;;;;18.47;60.20;99633.88;4484960;32;20128;-87
2023/04/18 07:53:07;;;;;;;2.25;1.42;;;;;;;18.70;60.22;99640.28;4471587;31;20140;-88
2023/04/18 07:55:33;;;;;;;1.40;0.90;;;;;;;18.81;60.21;99643.03;4471966;32;20084;-87
2023/04/18 07:57:59;;;;;;;2.87;1.20;;;;;;;18.69;60.20;99649.13;4471747;31;20116;-87
2023/04/18 08:00:24;;;;;;;3.60;1.00;;;;;;;18.61;60.21;99643.50;4486229;31;20157;-87
2023/04/18 08:02:49;;;;;;;2.20;1.30;;;;;;;18.75;60.21;99637.34;4486110;31;20120;-89
2023/04/18 08:05:15;;;;;;;3.37;1.12;;;;;;;18.84;60.21;99655.16;4484780;32;20396;-87
2023/04/18 08:07:40;;;;;;;2.60;1.48;;;;;;;18.79;60.21;99639.66;4484779;31;20092;-88
2023/04/18 08:10:06;;;;;;;2.28;1.05;;;;;;;18.96;60.22;99651.72;4486216;31;20114;-87
2023/04/18 08:12:31;;;;;;;2.80;1.60;;;;;;;18.84;60.23;99639.34;4484738;31;20144;-87
2023/04/18 08:14:57;;;;;;;2.92;1.20;;;;;;;19.09;60.23;99647.28;4475939;32;20484;-87
2023/04/18 08:17:22;;;;;;;4.78;1.67;;;;;;;18.94;60.23;99653.62;4470719;31;22311;-87
2023/04/18 08:19:48;;;;;;;1.85;1.30;;;;;;;19.00;60.22;99647.91;4484691;32;20152;-87
2023/04/18 08:22:13;;;;;;;5.45;1.60;;;;;;;19.11;60.23;99657.72;4484111;31;28009;-87
2023/04/18 08:24:39;;;;;;;3.65;1.58;;;;;;;19.16;60.24;99650.31;4471527;32;20484;-88
2023/04/18 08:27:04;;;;;;;3.55;1.15;;;;;;;19.23;60.24;99660.38;4484642;31;20498;-87
2023/04/18 08:29:29;;;;;;;2.97;1.30;;;;;;;19.32;60.25;99656.25;4484661;32;20140;-88
2023/04/18 08:31:55;;;;;;;3.67;1.77;;;;;;;19.24;60.24;99662.06;4484407;32;20151;-87
2023/04/18 08:34:20;;;;;;;2.80;1.70;;;;;;;19.44;60.24;99665.13;4471743;32;20510;-87
2023/04/18 08:36:46;;;;;;;3.05;1.40;;;;;;;19.32;60.25;99659.72;4497692;31;20080;-88
2023/04/18 08:39:12;;;;;;;2.50;1.27;;;;;;;19.42;60.25;99664.38;4483975;32;20185;-87
2023/04/18 08:41:37;;;;;;;3.17;1.45;;;;;;;19.24;60.24;99674.41;4484350;31;20108;-86
2023/04/18 08:44:02;;;;;;;5.03;1.27;;;;;;;18.99;60.22;99675.25;4484608;32;20092;-88
2023/04/18 08:46:32;;;;;;;1.98;1.25;;;;;;;19.08;60.24;99666.69;4484328;31;20425;-87
2023/04/18 08:48:58;;;;;;;3.40;1.40;;;;;;;19.09;60.23;99667.53;4484230;32;20121;-87
2023/04/18 08:51:25;;;;;;;1.77;1.12;;;;;;;19.34;60.25;99659.63;4484256;32;20385;-86
2023/04/18 08:53:51;;;;;;;4.07;1.52;;;;;;;19.53;60.25;99661.81;4478905;31;20096;-85
2023/04/18 08:56:16;;;;;;;4.47;1.50;;;;;;;19.73;60.27;99661.28;4487356;31;20083;-85
2023/04/18 08:58:43;;;;;;;5.35;1.33;;;;;;;19.74;60.26;99667.41;4486500;31;20147;-86
2023/04/18 09:01:09;;;;;;;2.78;1.42;;;;;;;19.56;60.26;99667.75;4485635;31;20105;-86
2023/04/18 09:03:41;;;;;;;1.95;1.10;;;;;;;19.68;60.26;99675.78;4492528;31;20132;-85
2023/04/18 09:06:07;;;;;;;2.30;1.20;;;;;;;19.83;60.27;99672.03;4484153;31;20473;-86
2023/04/18 09:08:34;;;;;;;2.03;1.05;;;;;;;20.18;60.30;99669.50;4484118;32;20483;-87
2023/04/18 09:11:19;;;;;;;2.05;1.30;;;;;;;20.44;60.30;99660.53;4484134;31;20559;-87
2023/04/18 09:13:46;;;;;;;4.00;1.60;;;;;;;20.73;60.32;99657.50;4484341;32;20118;-86
2023/04/18 09:16:12;;;;;;;2.12;1.33;;;;;;;20.98;60.33;99653.84;4488060;31;20096;-86
2023/04/18 09:18:37;;;;;;;2.30;1.42;;;;;;;21.03;60.33;99654.31;4484279;32;20108;-86
2023/04/18 09:21:19;;;;;;;1.70;0.95;;;;;;;20.51;60.30;99651.19;4470941;31;23397;-86
2023/04/18 09:23:46;;;;;;;2.47;1.45;;;;;;;20.36;60.30;99654.94;4471790;32;20076;-86
2023/04/18 09:26:12;;;;;;;3.37;1.60;;;;;;;20.58;60.30;99659.50;4477381;31;20087;-86
2023/04/18 09:28:40;;;;;;;2.45;1.52;;;;;;;20.97;60.33;99655.66;4488158;31;20093;-86
2023/04/18 09:31:14;;;;;;;2.87;1.40;;;;;;;21.18;60.35;99653.16;4484043;32;20611;-86
2023/04/18 09:33:43;;;;;;;2.50;1.15;;;;;;;20.89;60.33;99658.03;4484171;31;20100;-87
2023/04/18 09:36:17;;;;;;;3.50;1.50;;;;;;;20.79;60.33;99668.47;4484036;32;20502;-87
2023/04/18 09:38:42;;;;;;;3.47;1.40;;;;;;;20.70;60.31;99657.75;4474626;31;20103;-86
2023/04/18 09:41:09;;;;;;;2.33;1.20;;;;;;;20.64;60.32;99667.00;4474065;31;20100;-87
2023/04/18 09:43:34;;;;;;;3.35;1.70;;;;;;;20.62;60.32;99666.25;4487855;31;20108;-87
2023/04/18 09:46:00;;;;;;;4.07;1.12;;;;;;;20.81;60.33;99671.84;4480126;32;20110;-87
2023/04/18 09:48:26;;;;;;;3.70;1.05;;;;;;;20.65;60.32;99670.47;4485852;32;20536;-86
2023/04/18 09:50:51;;;;;;;2.42;0.95;;;;;;;20.43;60.31;99674.72;4478246;32;27808;-87
2023/04/18 09:53:18;;;;;;;1.70;1.00;;;;;;;20.49;60.31;99663.69;4472384;32;20463;-86
2023/04/18 09:55:43;;;;;;;5.87;1.00;;;;;;;20.53;60.30;99662.47;4479420;31;20107;-85
2023/04/18 09:58:08;;;;;;;2.90;1.55;;;;;;;20.44;60.30;99660.53;4485476;31;20147;-85
2023/04/18 10:00:34;;;;;;;4.45;1.30;;;;;;;20.38;60.30;99673.34;4485831;31;20152;-86
2023/04/18 10:03:09;;;;;;;1.65;1.15;;;;;;;20.72;60.32;99664.59;4485330;31;25499;-87
2023/04/18 10:05:36;;;;;;;3.62;0.95;;;;;;;21.21;60.34;99658.22;4483840;32;20088;-87
2023/04/18 10:08:02;;;;;;;1.52;0.90;;;;;;;21.47;60.35;99647.41;4471963;31;20104;-86
2023/04/18 10:10:27;;;;;;;2.90;1.00;;;;;;;21.45;60.36;99651.03;4501536;31;20161;-86
2023/04/18 10:12:56;;;;;;;2.25;1.40;;;;;;;21.61;60.37;99655.97;4486761;31;20167;-87
2023/04/18 10:15:23;;;;;;;2.72;1.20;;;;;;;21.12;60.35;99657.13;4485472;32;20084;-87
2023/04/18 10:18:02;;;;;;;3.10;1.23;;;;;;;21.24;60.35;99658.00;4472381;32;20132;-86
2023/04/18 10:20:29;;;;;;;3.90;1.02;;;;;;;21.42;60.36;99650.44;4485338;31;20122;-86
2023/04/18 10:22:55;;;;;;;3.00;1.50;;;;;;;21.31;60.35;99653.09;4485444;32;20097;-86
2023/04/18 10:25:33;;;;;;;2.28;1.05;;;;;;;21.30;60.35;99654.91;4486567;31;20093;-86
2023/04/18 10:27:59;;;;;;;3.37;1.23;;;;;;;21.29;60.35;99655.00;4486719;31;20116;-86
2023/04/18 10:30:38;;;;;;;2.75;0.93;;;;;;;21.38;60.35;99647.19;4485831;31;20225;-87
2023/04/18 10:33:23;;;;;;;5.90;0.85;;;;;;;21.49;60.36;99651.63;4487168;31;20084;-86
2023/04/18 10:36:08;;;;;;;3.40;1.00;;;;;;;21.58;60.37;99656.22;4491017;31;20140;-86
2023/04/18 10:38:43;;;;;;;3.78;1.65;;;;;;;21.49;60.36;99654.28;4486025;31;20616;-86
2023/04/18 10:41:25;;;;;;;3.62;0.90;;;;;;;21.60;60.36;99650.81;4478461;32;20158;-87
2023/04/18 10:44:08;;;;;;;5.32;1.10;;;;;;;21.72;60.38;99655.12;4486817;31;20081;-86
2023/04/18 10:46:38;;;;;;;2.33;1.15;;;;;;;21.93;60.38;99644.59;4485018;31;20127;-87
2023/04/18 10:49:14;;;;;;;2.15;1.27;;;;;;;21.81;60.38;99648.25;4485360;32;20473;-86
2023/04/18 10:51:40;;;;;;;3.55;1.67;;;;;;;21.53;60.36;99645.16;4499393;31;20087;-86
2023/04/18 10:54:10;;;;;;;1.95;1.35;;;;;;;21.52;60.36;99640.78;4464653;32;20565;-86
2023/04/18 10:56:35;;;;;;;3.33;1.87;;;;;;;21.59;60.37;99638.53;4486544;31;20118;-86
2023/04/18 10:59:02;;;;;;;6.78;1.55;;;;;;;21.60;60.36;99648.16;4485246;32;20109;-86
2023/04/18 11:01:29;;;;;;;2.17;1.50;;;;;;;21.41;60.36;99643.47;4490060;31;20096;-86
2023/04/18 11:03:54;;;;;;;4.47;1.80;;;;;;;21.29;60.35;99636.47;4492078;31;20088;-86
2023/04/18 11:06:21;;;;;;;4.72;1.45;;;;;;;21.15;60.34;99646.31;4485514;32;20114;-86
2023/04/18 11:08:47;;;;;;;2.85;1.25;;;;;;;21.10;60.35;99643.19;4481108;31;20108;-87
2023/04/18 11:11:12;;;;;;;4.15;1.85;;;;;;;20.96;60.34;99637.25;4486999;31;20100;-87
2023/04/18 11:13:53;;;;;;;2.95;1.55;;;;;;;20.91;60.34;99637.59;4485672;32;20471;-85
2023/04/18 11:16:26;;;;;;;1.37;0.95;;;;;;;21.02;60.34;99640.25;4488030;31;20087;-84
2023/04/18 11:18:52;;;;;;;3.08;1.42;;;;;;;21.00;60.34;99633.41;4484047;31;20069;-85
2023/04/18 11:21:17;;;;;;;2.95;1.30;;;;;;;21.12;60.35;99637.75;4490340;32;20075;-86
2023/04/18 11:23:42;;;;;;;2.25;1.10;;;;;;;21.13;60.35;99645.59;4496292;31;20176;-86
2023/04/18 11:26:08;;;;;;;4.68;1.33;;;;;;;21.27;60.36;99643.69;4495909;32;20472;-85
2023/04/18 11:28:33;;;;;;;2.45;1.25;;;;;;;21.18;60.35;99652.31;4484573;31;20157;-86
2023/04/18 11:31:00;;;;;;;3.10;1.12;;;;;;;21.16;60.34;99641.84;4476156;31;32706;-85